Time;durP1;ratioP1;P1;durP2;ratioP2;P2;SDS_P1;SDS_P2;PMS_P1;PMS_P2;Temp;Humidity;BMP_temperature;BMP_pressure;BME280_temperature;BME280_humidity;BME280_pressure;Samples;Min_cycle;Max_cycle;Signal;HPM_P1;HPM_P2
2023/01/18 00:00:41;;;;;;;16.77;12.10;;;1.10;99.90;;;;;;4986518;28;20442;-75
2023/01/18 00:03:12;;;;;;;16.70;12.30;;;1.00;99.90;;;;;;5010007;28;21098;-75
2023/01/18 00:05:39;;;;;;;14.73;11.30;;;1.20;99.90;;;;;;5018638;28;20186;-75
2023/01/18 00:08:06;;;;;;;13.60;11.70;;;1.10;99.90;;;;;;5009642;28;20540;-75
2023/01/18 00:10:31;;;;;;;16.87;11.80;;;1.10;99.90;;;;;;5017555;28;20422;-75
2023/01/18 00:12:57;;;;;;;14.67;11.70;;;1.10;99.90;;;;;;5002124;28;20441;-73
2023/01/18 00:15:23;;;;;;;15.63;11.20;;;1.20;99.90;;;;;;5012353;28;20175;-74
2023/01/18 00:17:51;;;;;;;17.07;12.33;;;1.20;99.90;;;;;;5020147;28;20213;-76
2023/01/18 00:20:20;;;;;;;18.03;12.33;;;1.20;99.90;;;;;;5019094;28;20483;-74
2023/01/18 00:22:46;;;;;;;16.90;12.20;;;1.30;99.90;;;;;;5003354;28;20938;-74
2023/01/18 00:25:12;;;;;;;17.13;11.30;;;1.20;99.90;;;;;;5008197;28;20450;-74
2023/01/18 00:27:38;;;;;;;13.80;11.40;;;1.10;99.90;;;;;;5020439;28;20524;-74
2023/01/18 00:30:06;;;;;;;15.10;10.20;;;1.00;99.90;;;;;;5021685;28;20190;-74
2023/01/18 00:32:31;;;;;;;14.57;11.10;;;0.70;99.90;;;;;;5025413;28;20470;-74
2023/01/18 00:34:57;;;;;;;17.30;12.27;;;0.90;99.90;;;;;;5019226;28;21029;-74
2023/01/18 00:37:24;;;;;;;17.73;11.70;;;0.60;99.90;;;;;;5023820;28;20651;-74
2023/01/18 00:39:49;;;;;;;16.93;13.63;;;0.80;99.90;;;;;;5026631;28;20396;-74
2023/01/18 00:44:59;;;;;;;14.20;10.87;;;0.60;99.90;;;;;;5011255;28;20571;-74
2023/01/18 00:47:25;;;;;;;16.57;12.23;;;0.90;99.90;;;;;;5021549;28;20417;-74
2023/01/18 00:49:51;;;;;;;14.40;10.80;;;0.70;99.90;;;;;;5021861;28;20197;-74
2023/01/18 00:52:17;;;;;;;17.83;11.17;;;0.70;99.90;;;;;;5028059;28;20460;-74
2023/01/18 00:54:42;;;;;;;18.67;11.93;;;0.80;99.90;;;;;;5009440;28;20186;-74
2023/01/18 00:57:08;;;;;;;19.93;12.20;;;0.90;99.90;;;;;;5008007;28;20213;-74
2023/01/18 00:59:34;;;;;;;14.97;11.90;;;1.00;99.90;;;;;;5009393;28;20245;-74
2023/01/18 01:01:59;;;;;;;15.40;11.40;;;0.90;99.90;;;;;;4992062;28;20199;-74
2023/01/18 01:07:10;;;;;;;15.47;11.90;;;1.00;99.90;;;;;;5009357;28;20179;-74
2023/01/18 01:09:35;;;;;;;16.97;11.53;;;1.10;99.90;;;;;;5009308;28;20425;-74
2023/01/18 01:26:12;;;;;;;19.10;11.97;;;0.80;99.90;;;;;;5015815;28;20500;-75
2023/01/18 01:28:49;;;;;;;15.80;12.13;;;0.60;99.90;;;;;;5015589;28;20425;-74
2023/01/18 01:31:17;;;;;;;19.23;11.57;;;0.70;99.90;;;;;;4997738;28;20485;-74
2023/01/18 01:33:47;;;;;;;16.57;11.57;;;0.70;99.90;;;;;;5015675;28;20795;-75
2023/01/18 01:36:18;;;;;;;17.80;11.90;;;0.70;99.90;;;;;;5015857;28;21005;-75
2023/01/18 01:38:44;;;;;;;19.33;11.23;;;0.80;99.90;;;;;;5015649;28;20918;-75
2023/01/18 01:41:20;;;;;;;18.30;12.23;;;0.60;99.90;;;;;;5015156;28;20521;-75
2023/01/18 01:43:51;;;;;;;15.30;11.90;;;0.60;99.90;;;;;;5015515;28;20428;-75
2023/01/18 01:46:26;;;;;;;18.53;11.40;;;0.50;99.90;;;;;;4998221;28;20775;-75
2023/01/18 01:49:06;;;;;;;14.87;12.70;;;0.50;99.90;;;;;;5015603;28;20392;-75
2023/01/18 01:51:33;;;;;;;17.10;12.23;;;0.60;99.90;;;;;;4998006;28;20444;-75
2023/01/18 01:54:02;;;;;;;19.93;13.33;;;0.80;99.90;;;;;;4998065;28;20987;-75
2023/01/18 01:56:29;;;;;;;14.53;11.73;;;0.70;99.90;;;;;;5015353;28;20464;-75
2023/01/18 01:58:59;;;;;;;14.50;11.63;;;0.80;99.90;;;;;;4981339;28;20430;-75
2023/01/18 02:01:27;;;;;;;17.57;12.57;;;0.70;99.90;;;;;;5015309;28;20472;-75
2023/01/18 02:03:56;;;;;;;17.70;14.30;;;0.70;99.90;;;;;;5015452;28;21165;-75
2023/01/18 02:06:30;;;;;;;18.20;13.80;;;0.90;99.90;;;;;;5015518;28;20766;-75
2023/01/18 02:09:12;;;;;;;18.80;12.93;;;0.90;99.90;;;;;;4997387;28;20433;-75
2023/01/18 02:11:39;;;;;;;16.07;12.13;;;0.70;99.90;;;;;;4983868;28;21037;-75
2023/01/18 02:14:11;;;;;;;17.27;11.83;;;0.70;99.90;;;;;;4994224;28;20450;-75
2023/01/18 02:16:53;;;;;;;16.13;11.53;;;0.80;99.90;;;;;;4995855;28;20453;-75
2023/01/18 02:19:33;;;;;;;16.50;11.80;;;0.50;99.90;;;;;;4994257;28;21345;-75
2023/01/18 02:22:09;;;;;;;17.73;12.10;;;0.60;99.90;;;;;;5015369;28;20434;-75
2023/01/18 02:24:56;;;;;;;17.90;12.83;;;0.70;99.90;;;;;;5015264;28;20413;-75
2023/01/18 02:27:26;;;;;;;20.03;12.80;;;0.50;99.90;;;;;;5015029;28;20402;-75
2023/01/18 02:29:55;;;;;;;16.33;11.67;;;0.60;99.90;;;;;;5015296;28;20467;-75
2023/01/18 02:32:38;;;;;;;16.57;12.60;;;0.50;99.90;;;;;;5012374;28;20454;-75
2023/01/18 02:35:18;;;;;;;19.97;12.43;;;0.60;99.90;;;;;;4994489;28;20962;-75
2023/01/18 02:38:01;;;;;;;16.50;12.00;;;0.40;99.90;;;;;;5011844;28;20454;-75
2023/01/18 02:40:35;;;;;;;15.73;12.17;;;0.40;99.90;;;;;;5011920;28;20440;-74
2023/01/18 02:48:38;;;;;;;18.60;12.67;;;0.40;99.90;;;;;;5011708;28;20429;-74
2023/01/18 02:51:04;;;;;;;19.00;13.30;;;0.60;99.90;;;;;;5011815;28;20413;-74
2023/01/18 02:53:34;;;;;;;18.97;13.80;;;0.40;99.90;;;;;;4978161;28;20938;-75
2023/01/18 02:56:05;;;;;;;16.97;12.60;;;0.50;99.90;;;;;;4994057;28;21003;-75
2023/01/18 02:58:50;;;;;;;16.27;12.53;;;0.50;99.90;;;;;;5011495;28;20485;-76
2023/01/18 03:01:49;;;;;;;20.83;13.13;;;0.50;99.90;;;;;;5011531;28;20484;-75
2023/01/18 03:04:28;;;;;;;18.87;11.90;;;0.30;99.90;;;;;;5003799;28;20463;-75
2023/01/18 03:07:01;;;;;;;18.30;13.17;;;0.40;99.90;;;;;;4993731;28;20468;-75
2023/01/18 03:09:28;;;;;;;19.10;13.60;;;0.60;99.90;;;;;;5011288;28;20572;-75
2023/01/18 03:11:57;;;;;;;20.63;14.50;;;0.50;99.90;;;;;;4994094;28;20444;-73
2023/01/18 03:14:43;;;;;;;19.30;12.90;;;0.70;99.90;;;;;;5011268;28;20485;-75
2023/01/18 03:17:20;;;;;;;15.20;12.87;;;0.60;99.90;;;;;;4993685;28;20454;-75
2023/01/18 03:20:04;;;;;;;18.43;13.77;;;0.40;99.90;;;;;;5011228;28;20413;-75
2023/01/18 03:25:45;;;;;;;19.60;12.17;;;0.40;99.90;;;;;;5005622;28;20800;-76
2023/01/18 03:34:50;;;;;;;17.67;13.20;;;0.60;99.90;;;;;;5011029;28;20397;-75
2023/01/18 03:37:22;;;;;;;16.47;12.70;;;0.30;99.90;;;;;;5011651;28;20437;-74
2023/01/18 03:39:56;;;;;;;17.47;13.03;;;0.40;99.90;;;;;;5011166;28;20760;-74
2023/01/18 03:42:38;;;;;;;16.23;12.40;;;0.40;99.90;;;;;;5011154;28;20433;-74
2023/01/18 03:45:11;;;;;;;20.17;12.97;;;0.40;99.90;;;;;;4993323;28;20422;-74
2023/01/18 03:47:37;;;;;;;19.20;12.80;;;0.30;99.90;;;;;;4993152;28;20803;-75
2023/01/18 03:50:04;;;;;;;15.80;11.40;;;0.40;99.90;;;;;;5010752;28;20471;-74
2023/01/18 03:52:40;;;;;;;16.00;12.53;;;0.20;99.90;;;;;;5011158;28;20425;-75
2023/01/18 03:55:37;;;;;;;21.30;12.20;;;0.20;99.90;;;;;;5010743;28;20396;-75
2023/01/18 03:58:08;;;;;;;20.03;13.20;;;0.40;99.90;;;;;;5009299;28;20453;-74
2023/01/18 04:00:35;;;;;;;19.50;12.97;;;0.10;99.90;;;;;;5010651;28;20446;-73
2023/01/18 04:03:01;;;;;;;14.50;11.80;;;0.10;99.90;;;;;;5010912;28;20429;-74
2023/01/18 04:05:27;;;;;;;16.57;12.53;;;0.10;99.90;;;;;;5009215;28;20770;-74
2023/01/18 04:07:52;;;;;;;22.83;14.60;;;0.20;99.90;;;;;;5009445;28;20632;-74
2023/01/18 04:10:18;;;;;;;15.80;12.00;;;0.30;99.90;;;;;;5010206;28;20183;-76
2023/01/18 04:12:43;;;;;;;18.90;13.73;;;0.40;99.90;;;;;;5010605;28;20183;-76
2023/01/18 04:15:09;;;;;;;19.27;12.63;;;0.20;99.90;;;;;;4992753;28;20183;-76
2023/01/18 04:17:35;;;;;;;17.37;13.07;;;0.20;99.90;;;;;;4992673;28;20824;-75
2023/01/18 04:20:02;;;;;;;16.90;12.93;;;0.20;99.90;;;;;;5008840;28;20509;-76
2023/01/18 04:22:27;;;;;;;16.00;13.03;;;0.30;99.90;;;;;;5010270;28;20207;-75
2023/01/18 04:24:53;;;;;;;17.57;12.80;;;0.30;99.90;;;;;;5010009;28;21085;-75
2023/01/18 04:27:19;;;;;;;19.23;13.30;;;0.20;99.90;;;;;;5009898;28;20558;-76
2023/01/18 04:29:44;;;;;;;19.90;13.70;;;0.10;99.90;;;;;;5009918;28;20269;-75
2023/01/18 04:32:10;;;;;;;17.90;12.73;;;0.30;99.90;;;;;;5010525;28;20222;-76
2023/01/18 04:34:35;;;;;;;20.07;12.33;;;0.20;99.90;;;;;;5009786;28;20190;-75
2023/01/18 04:37:01;;;;;;;17.33;13.37;;;0.30;99.90;;;;;;5009595;28;20221;-76
2023/01/18 04:39:27;;;;;;;18.87;13.10;;;0.30;99.90;;;;;;5009578;28;20171;-75
2023/01/18 04:41:53;;;;;;;17.30;13.10;;;0.30;99.90;;;;;;5009913;28;20265;-76
2023/01/18 04:44:18;;;;;;;17.67;13.17;;;0.30;99.90;;;;;;5009758;28;20422;-75
2023/01/18 04:46:44;;;;;;;19.70;14.13;;;0.20;99.90;;;;;;5009568;28;20189;-76
2023/01/18 04:49:14;;;;;;;20.27;13.23;;;0.30;99.90;;;;;;5009851;28;20190;-76
2023/01/18 04:51:40;;;;;;;18.50;13.77;;;0.40;99.90;;;;;;5009557;28;20210;-75
2023/01/18 04:54:06;;;;;;;20.03;13.13;;;0.20;99.90;;;;;;5008226;28;20397;-75
2023/01/18 04:56:32;;;;;;;22.87;13.33;;;0.20;99.90;;;;;;4991935;28;20461;-75
2023/01/18 04:58:58;;;;;;;19.70;13.23;;;0.20;99.90;;;;;;5009267;28;20399;-75
2023/01/18 05:01:24;;;;;;;18.33;13.03;;;0.30;99.90;;;;;;5009533;28;20574;-75
2023/01/18 05:03:52;;;;;;;22.90;15.13;;;0.30;99.90;;;;;;4991757;28;20655;-76
2023/01/18 05:06:20;;;;;;;20.03;15.07;;;0.40;99.90;;;;;;4992041;28;20190;-76
2023/01/18 05:08:46;;;;;;;20.23;13.43;;;0.30;99.90;;;;;;5007865;28;20426;-75
2023/01/18 05:11:14;;;;;;;25.80;14.30;;;0.10;99.90;;;;;;5009192;28;20885;-75
2023/01/18 05:13:40;;;;;;;20.67;13.30;;;0.10;99.90;;;;;;5009315;28;20525;-75
2023/01/18 05:16:11;;;;;;;21.40;14.73;;;0.20;99.90;;;;;;4991937;28;20436;-75
2023/01/18 05:18:36;;;;;;;20.93;14.37;;;0.10;99.90;;;;;;5009108;28;20430;-75
2023/01/18 05:21:02;;;;;;;21.50;14.90;;;0.20;99.90;;;;;;5009009;28;20486;-75
2023/01/18 05:23:28;;;;;;;22.53;14.37;;;0.20;99.90;;;;;;5009000;28;20298;-75
2023/01/18 05:25:57;;;;;;;22.50;14.97;;;0.30;99.90;;;;;;5009337;28;20589;-75
2023/01/18 05:28:24;;;;;;;20.33;14.47;;;0.30;99.90;;;;;;5009060;28;20179;-75
2023/01/18 05:30:51;;;;;;;18.43;14.50;;;0.30;99.90;;;;;;5008784;28;20469;-76
2023/01/18 05:33:17;;;;;;;22.87;13.37;;;0.00;99.90;;;;;;5009157;28;20855;-75
2023/01/18 05:35:53;;;;;;;22.07;14.70;;;0.10;99.90;;;;;;5009007;28;20414;-75
2023/01/18 05:38:21;;;;;;;22.40;14.43;;;0.30;99.90;;;;;;5009088;28;20433;-75
2023/01/18 05:40:52;;;;;;;19.13;13.80;;;0.30;99.90;;;;;;5008903;28;20946;-74
2023/01/18 05:43:22;;;;;;;21.83;14.57;;;0.30;99.90;;;;;;5009196;28;20480;-75
2023/01/18 05:45:48;;;;;;;20.10;14.60;;;0.10;99.90;;;;;;5009037;28;20581;-75
2023/01/18 05:48:14;;;;;;;21.20;14.73;;;0.00;99.90;;;;;;5008952;28;20512;-75
2023/01/18 05:50:42;;;;;;;19.67;13.90;;;0.20;99.90;;;;;;4991499;28;20482;-75
2023/01/18 05:53:08;;;;;;;19.83;15.07;;;0.20;99.90;;;;;;5009079;28;20413;-75
2023/01/18 05:55:33;;;;;;;19.47;15.13;;;0.20;99.90;;;;;;4991031;28;20432;-74
2023/01/18 05:57:59;;;;;;;18.60;13.63;;;0.30;99.90;;;;;;4991146;28;20430;-75
2023/01/18 06:00:25;;;;;;;20.30;14.77;;;0.10;99.90;;;;;;5008856;28;20192;-75
2023/01/18 06:02:52;;;;;;;21.70;14.70;;;0.00;99.90;;;;;;5009099;28;20919;-75
2023/01/18 06:05:18;;;;;;;19.90;14.03;;;0.00;99.90;;;;;;5008733;28;20400;-73
2023/01/18 06:07:44;;;;;;;16.13;13.60;;;0.10;99.90;;;;;;4989669;28;20519;-73
2023/01/18 06:10:10;;;;;;;22.77;14.57;;;0.20;99.90;;;;;;5018387;28;20808;-73
2023/01/18 06:12:35;;;;;;;18.10;14.60;;;-0.10;99.90;;;;;;4977156;28;20190;-72
2023/01/18 06:15:01;;;;;;;20.90;14.20;;;0.00;99.90;;;;;;5025979;28;20948;-73
2023/01/18 06:17:30;;;;;;;20.07;14.30;;;0.30;99.90;;;;;;5031092;28;20202;-75
2023/01/18 06:19:56;;;;;;;20.00;15.10;;;0.20;99.90;;;;;;5012325;28;20267;-75
2023/01/18 06:22:21;;;;;;;23.13;16.00;;;0.00;99.90;;;;;;5012383;28;20416;-75
2023/01/18 06:24:47;;;;;;;22.33;14.60;;;0.20;99.90;;;;;;5011923;28;20385;-75
2023/01/18 06:27:13;;;;;;;19.30;14.23;;;0.20;99.90;;;;;;5011636;28;20250;-75
2023/01/18 06:29:38;;;;;;;21.70;14.87;;;0.20;99.90;;;;;;5011989;28;20278;-75
2023/01/18 06:32:04;;;;;;;23.80;15.60;;;0.40;99.90;;;;;;5012253;28;20668;-74
2023/01/18 06:34:30;;;;;;;23.60;16.10;;;0.20;99.90;;;;;;5011911;28;20179;-75
2023/01/18 06:36:56;;;;;;;23.93;16.40;;;0.30;99.90;;;;;;5011819;28;20478;-75
2023/01/18 06:39:21;;;;;;;23.73;16.23;;;0.30;99.90;;;;;;5013114;28;20450;-74
2023/01/18 06:41:47;;;;;;;25.07;16.70;;;0.30;99.90;;;;;;5023194;28;20209;-75
2023/01/18 06:44:12;;;;;;;22.10;16.63;;;0.20;99.90;;;;;;4976154;28;20247;-75
2023/01/18 06:46:38;;;;;;;22.60;15.20;;;0.40;99.90;;;;;;4992706;28;20187;-75
2023/01/18 06:49:04;;;;;;;20.10;15.73;;;0.20;99.90;;;;;;4998839;28;20194;-75
2023/01/18 06:51:29;;;;;;;23.57;16.40;;;0.30;99.90;;;;;;5005502;28;20190;-76
2023/01/18 06:53:55;;;;;;;20.30;15.37;;;0.40;99.90;;;;;;5031356;28;20679;-77
2023/01/18 06:56:21;;;;;;;20.20;15.33;;;0.40;99.90;;;;;;5008762;28;20458;-77
2023/01/18 06:58:46;;;;;;;22.90;16.73;;;0.40;99.90;;;;;;5008705;28;20448;-77
2023/01/18 07:01:12;;;;;;;19.93;15.10;;;0.40;99.90;;;;;;4993292;28;20195;-77
2023/01/18 07:03:38;;;;;;;19.60;15.00;;;0.30;99.90;;;;;;5011629;28;20179;-76
2023/01/18 07:06:05;;;;;;;19.63;15.03;;;0.40;99.90;;;;;;5011753;28;20179;-75
2023/01/18 07:08:31;;;;;;;20.07;15.87;;;0.30;99.90;;;;;;5011620;28;20175;-76
2023/01/18 07:10:58;;;;;;;23.30;15.63;;;0.30;99.90;;;;;;5012769;28;20783;-77
2023/01/18 07:13:24;;;;;;;19.23;14.97;;;0.40;99.90;;;;;;5013606;28;20428;-74
2023/01/18 07:15:56;;;;;;;18.77;14.30;;;0.30;99.90;;;;;;5005649;28;20512;-73
2023/01/18 07:18:22;;;;;;;21.90;15.27;;;0.30;99.90;;;;;;5007797;28;20498;-74
2023/01/18 07:20:59;;;;;;;19.50;13.93;;;0.40;99.90;;;;;;5005499;28;20913;-74
2023/01/18 07:23:25;;;;;;;20.00;13.73;;;0.30;99.90;;;;;;4977447;28;20767;-74
2023/01/18 07:26:02;;;;;;;20.57;14.70;;;0.30;99.90;;;;;;4993163;28;20426;-75
2023/01/18 07:28:28;;;;;;;23.37;15.17;;;0.30;99.90;;;;;;5010903;28;20954;-74
2023/01/18 07:30:54;;;;;;;21.20;14.57;;;0.40;99.90;;;;;;4993079;28;20450;-74
2023/01/18 07:33:20;;;;;;;19.57;14.87;;;0.40;99.90;;;;;;4995145;28;20417;-77
2023/01/18 07:35:45;;;;;;;19.77;14.40;;;0.40;99.90;;;;;;5018005;28;20314;-75
2023/01/18 07:38:11;;;;;;;22.27;16.20;;;0.40;99.90;;;;;;5025771;28;20215;-74
2023/01/18 07:40:36;;;;;;;20.80;14.23;;;0.40;99.90;;;;;;5023823;28;20202;-74
2023/01/18 07:43:02;;;;;;;24.17;15.43;;;0.50;99.90;;;;;;5022826;28;20185;-74
2023/01/18 07:45:28;;;;;;;20.23;14.37;;;0.40;99.90;;;;;;5021436;28;20179;-74
2023/01/18 07:47:54;;;;;;;20.03;14.60;;;0.40;99.90;;;;;;5029681;28;20417;-73
2023/01/18 07:50:22;;;;;;;22.90;14.50;;;0.60;99.90;;;;;;5028219;28;20174;-75
2023/01/18 07:52:48;;;;;;;23.60;15.13;;;0.40;99.90;;;;;;5010481;28;20191;-73
2023/01/18 07:55:14;;;;;;;20.73;15.20;;;0.50;99.90;;;;;;5010331;28;20529;-74
2023/01/18 07:57:39;;;;;;;17.90;14.23;;;0.60;99.90;;;;;;5010034;28;20667;-74
2023/01/18 08:00:06;;;;;;;18.20;14.30;;;0.70;99.90;;;;;;5010053;28;20179;-77
2023/01/18 08:02:32;;;;;;;23.27;15.30;;;0.80;99.90;;;;;;5010365;28;20175;-76
2023/01/18 08:04:58;;;;;;;17.63;14.87;;;0.70;99.90;;;;;;4993040;28;21012;-76
2023/01/18 08:07:24;;;;;;;22.03;15.73;;;0.70;99.90;;;;;;5011014;28;20414;-76
2023/01/18 08:09:50;;;;;;;21.30;15.00;;;0.70;99.90;;;;;;5010975;28;20190;-76
2023/01/18 08:12:17;;;;;;;19.40;14.87;;;0.50;99.90;;;;;;4992438;28;20417;-76
2023/01/18 08:14:44;;;;;;;21.27;16.07;;;0.60;99.90;;;;;;5002416;28;20249;-76
2023/01/18 08:17:10;;;;;;;22.30;17.37;;;0.50;99.90;;;;;;5010504;28;20424;-76
2023/01/18 08:19:35;;;;;;;21.97;16.17;;;0.90;99.90;;;;;;5010019;28;20458;-77
2023/01/18 08:22:02;;;;;;;21.80;16.40;;;0.70;99.90;;;;;;5010889;28;20853;-76
2023/01/18 08:24:28;;;;;;;23.13;15.40;;;0.60;99.90;;;;;;4993180;28;20183;-77
2023/01/18 08:26:53;;;;;;;21.73;15.80;;;0.80;99.90;;;;;;5010544;28;20461;-74
2023/01/18 08:29:19;;;;;;;23.70;16.50;;;0.80;99.90;;;;;;5010393;28;20451;-76
2023/01/18 08:31:44;;;;;;;21.10;17.27;;;1.00;99.90;;;;;;5010614;28;20757;-75
2023/01/18 08:34:10;;;;;;;20.80;16.43;;;0.90;99.90;;;;;;5010565;28;20191;-76
2023/01/18 08:36:36;;;;;;;22.20;16.67;;;0.90;99.90;;;;;;4993426;28;20203;-76
2023/01/18 08:39:01;;;;;;;22.13;15.77;;;1.00;99.90;;;;;;4976204;28;20190;-75
2023/01/18 08:41:28;;;;;;;19.50;14.57;;;1.20;99.90;;;;;;5009911;28;20195;-75
2023/01/18 08:43:58;;;;;;;21.00;16.80;;;1.20;99.90;;;;;;5009828;28;20179;-75
2023/01/18 08:46:24;;;;;;;19.00;15.70;;;1.20;99.90;;;;;;4992623;28;20464;-75
2023/01/18 08:48:54;;;;;;;19.73;16.60;;;1.30;99.90;;;;;;4992096;28;20432;-76
2023/01/18 08:51:21;;;;;;;19.43;15.57;;;1.50;99.90;;;;;;5009454;28;20826;-75
2023/01/18 08:53:50;;;;;;;26.23;16.97;;;1.50;99.90;;;;;;5009635;28;20430;-75
2023/01/18 08:56:17;;;;;;;23.07;16.07;;;1.80;99.90;;;;;;5009973;28;20457;-76
2023/01/18 08:58:42;;;;;;;19.73;15.60;;;1.50;99.90;;;;;;5009505;28;20449;-75
2023/01/18 09:01:09;;;;;;;20.03;17.50;;;1.70;99.90;;;;;;4991952;28;20811;-76
2023/01/18 09:03:35;;;;;;;19.30;16.93;;;1.90;99.90;;;;;;5009611;28;20187;-76
2023/01/18 09:06:02;;;;;;;25.27;16.33;;;1.80;99.90;;;;;;4992162;28;20517;-75
2023/01/18 09:08:28;;;;;;;23.20;17.57;;;2.00;99.90;;;;;;5009603;28;20885;-75
2023/01/18 09:10:54;;;;;;;24.10;17.87;;;2.20;99.90;;;;;;5009362;28;20696;-75
2023/01/18 09:13:20;;;;;;;22.90;16.67;;;2.00;99.90;;;;;;5009735;28;20183;-75
2023/01/18 09:15:45;;;;;;;24.80;16.43;;;2.10;99.90;;;;;;5009548;28;20422;-75
2023/01/18 09:18:12;;;;;;;23.90;19.63;;;2.40;99.90;;;;;;5002149;28;20204;-75
2023/01/18 09:20:38;;;;;;;23.00;17.37;;;2.50;99.90;;;;;;4989786;28;20226;-76
2023/01/18 09:23:08;;;;;;;23.53;17.67;;;2.70;99.90;;;;;;4990069;28;20423;-74
2023/01/18 09:25:37;;;;;;;22.47;18.40;;;2.70;99.90;;;;;;4989586;28;21024;-73
2023/01/18 09:28:04;;;;;;;20.13;16.90;;;2.60;99.90;;;;;;4972102;28;20430;-73
2023/01/18 09:30:30;;;;;;;22.67;17.63;;;2.70;99.90;;;;;;4989333;28;20824;-73
2023/01/18 09:32:57;;;;;;;21.13;17.73;;;2.70;99.90;;;;;;4990067;28;20438;-74
2023/01/18 09:35:22;;;;;;;22.00;18.63;;;2.80;99.90;;;;;;4972305;28;20190;-73
2023/01/18 09:37:48;;;;;;;22.60;18.43;;;2.70;99.90;;;;;;4989531;28;20455;-73
2023/01/18 09:40:19;;;;;;;23.13;18.20;;;2.80;99.90;;;;;;4989506;28;20423;-73
2023/01/18 09:42:47;;;;;;;26.57;18.60;;;2.60;99.90;;;;;;4993332;28;20180;-75
2023/01/18 09:45:25;;;;;;;23.70;18.53;;;2.80;99.90;;;;;;4993350;28;20426;-75
2023/01/18 09:47:58;;;;;;;26.30;17.47;;;2.60;99.90;;;;;;4993334;28;20432;-74
2023/01/18 09:50:25;;;;;;;22.60;17.47;;;2.80;99.90;;;;;;4975833;28;20455;-75
2023/01/18 09:53:15;;;;;;;23.43;17.83;;;2.90;99.90;;;;;;4993560;28;20863;-75
2023/01/18 09:55:55;;;;;;;21.33;17.97;;;3.00;99.90;;;;;;4975760;28;20438;-74
2023/01/18 09:58:45;;;;;;;23.13;18.90;;;3.30;99.90;;;;;;4975671;28;20430;-75
2023/01/18 10:01:16;;;;;;;21.40;17.63;;;3.40;99.90;;;;;;4993106;28;20427;-75
2023/01/18 10:03:53;;;;;;;22.60;18.93;;;3.40;99.90;;;;;;4991642;28;20469;-75
2023/01/18 10:06:27;;;;;;;23.87;18.00;;;3.60;99.90;;;;;;4993391;28;20490;-75
2023/01/18 10:08:59;;;;;;;22.10;18.60;;;3.70;99.90;;;;;;4992915;28;20406;-75
2023/01/18 10:11:58;;;;;;;21.80;17.67;;;3.90;99.90;;;;;;5004724;28;20528;-75
2023/01/18 10:14:43;;;;;;;22.70;17.60;;;4.00;99.90;;;;;;5012465;28;20861;-75
2023/01/18 10:17:37;;;;;;;23.40;17.27;;;3.90;99.90;;;;;;5012280;28;20942;-74
2023/01/18 10:20:35;;;;;;;21.60;17.00;;;4.00;99.90;;;;;;4987504;28;20426;-74
2023/01/18 10:23:20;;;;;;;20.30;17.07;;;4.10;99.90;;;;;;4992928;28;20787;-74
2023/01/18 10:26:08;;;;;;;22.00;17.37;;;4.30;99.90;;;;;;4992669;28;20473;-74
2023/01/18 10:29:04;;;;;;;19.20;16.43;;;4.40;99.90;;;;;;4991294;28;20477;-75
2023/01/18 10:31:56;;;;;;;25.20;17.17;;;4.20;99.90;;;;;;5031493;23;20531;-76
2023/01/18 10:34:31;;;;;;;20.93;17.03;;;4.20;99.90;;;;;;5011837;28;20497;-75
2023/01/18 10:37:13;;;;;;;22.23;17.77;;;4.30;99.90;;;;;;5014590;28;20459;-76
2023/01/18 10:39:50;;;;;;;22.20;17.00;;;4.50;99.90;;;;;;5032548;28;20409;-76
2023/01/18 10:42:35;;;;;;;23.60;17.50;;;4.60;99.90;;;;;;5032675;28;20452;-76
2023/01/18 10:45:00;;;;;;;25.00;16.53;;;4.50;99.90;;;;;;5032398;28;20484;-76
2023/01/18 10:47:26;;;;;;;22.70;17.07;;;4.50;99.90;;;;;;5014304;28;20516;-76
2023/01/18 10:49:58;;;;;;;22.03;17.70;;;4.30;99.90;;;;;;5014677;28;20175;-77
2023/01/18 10:52:29;;;;;;;21.73;17.80;;;4.50;99.90;;;;;;5031809;28;20267;-77
2023/01/18 10:55:06;;;;;;;19.47;16.40;;;4.60;99.90;;;;;;5032318;28;20413;-78
2023/01/18 10:57:53;;;;;;;21.00;17.00;;;4.50;99.90;;;;;;5017269;28;20879;-77
2023/01/18 11:00:31;;;;;;;24.10;16.47;;;4.50;99.90;;;;;;5034890;28;20440;-76
2023/01/18 11:02:57;;;;;;;24.13;16.70;;;4.50;99.90;;;;;;5017214;28;20424;-78
2023/01/18 11:05:33;;;;;;;18.50;16.60;;;4.60;99.90;;;;;;5033190;28;20412;-78
2023/01/18 11:08:23;;;;;;;23.27;17.63;;;4.50;99.90;;;;;;5034865;28;20417;-77
2023/01/18 11:10:56;;;;;;;18.57;16.47;;;4.60;99.90;;;;;;5017589;28;21088;-77
2023/01/18 11:13:38;;;;;;;19.97;16.60;;;4.60;99.90;;;;;;5017180;28;20516;-77
2023/01/18 11:16:16;;;;;;;22.77;16.60;;;4.60;99.90;;;;;;5036147;28;20472;-79
2023/01/18 11:19:03;;;;;;;19.63;15.73;;;4.60;99.90;;;;;;5017836;28;20421;-78
2023/01/18 11:21:44;;;;;;;21.37;15.50;;;4.40;99.90;;;;;;5017459;28;20463;-78
2023/01/18 11:24:36;;;;;;;24.87;16.23;;;4.60;99.90;;;;;;5034570;28;20456;-79
2023/01/18 11:27:13;;;;;;;21.50;16.50;;;4.50;99.90;;;;;;5034981;28;20824;-79
2023/01/18 11:29:44;;;;;;;20.40;15.40;;;4.60;99.90;;;;;;5035963;28;20905;-77
2023/01/18 11:32:22;;;;;;;16.93;15.00;;;4.80;99.90;;;;;;5017450;28;20814;-78
2023/01/18 11:34:51;;;;;;;22.87;16.67;;;5.20;99.90;;;;;;5017184;28;20444;-78
2023/01/18 11:37:38;;;;;;;16.93;14.83;;;5.40;99.90;;;;;;5017292;28;20511;-79
2023/01/18 11:40:20;;;;;;;18.33;16.07;;;5.40;99.90;;;;;;5017673;28;20509;-78
2023/01/18 11:42:47;;;;;;;21.70;15.03;;;5.50;99.90;;;;;;5035268;28;20436;-77
2023/01/18 11:45:20;;;;;;;17.07;14.20;;;5.40;99.90;;;;;;5017509;28;20827;-79
2023/01/18 11:48:06;;;;;;;23.07;14.40;;;5.80;99.90;;;;;;5035034;28;20417;-78
2023/01/18 11:50:42;;;;;;;17.87;14.83;;;6.30;99.90;;;;;;5020987;28;20491;-76
2023/01/18 11:53:45;;;;;;;16.10;14.40;;;6.40;99.90;;;;;;5017260;28;20511;-79
2023/01/18 11:56:31;;;;;;;19.43;13.33;;;7.30;99.90;;;;;;4977130;28;20429;-79
2023/01/18 11:58:58;;;;;;;18.17;13.93;;;8.00;99.90;;;;;;5033801;28;20774;-79
2023/01/18 12:02:15;;;;;;;16.10;14.40;;;10.40;99.90;;;;;;5016275;28;20441;-77
2023/01/18 12:04:55;;;;;;;16.50;12.50;;;13.90;98.20;;;;;;5000126;28;20436;-76
2023/01/18 12:07:50;;;;;;;14.33;12.93;;;16.60;91.10;;;;;;5016717;28;20444;-76
2023/01/18 12:10:24;;;;;;;14.00;12.50;;;18.30;79.40;;;;;;5016472;28;20777;-79
2023/01/18 12:13:03;;;;;;;15.20;13.60;;;19.00;73.90;;;;;;5034311;28;20424;-79
2023/01/18 12:16:15;;;;;;;14.90;12.80;;;20.70;65.50;;;;;;5033883;28;20409;-75
2023/01/18 12:19:00;;;;;;;13.40;12.07;;;22.00;59.30;;;;;;5015137;28;20579;-77
2023/01/18 12:21:50;;;;;;;14.30;12.90;;;23.30;53.40;;;;;;5033515;28;20433;-79
2023/01/18 12:24:50;;;;;;;14.23;12.73;;;24.20;50.60;;;;;;5016380;28;20467;-78
2023/01/18 12:27:58;;;;;;;15.23;13.73;;;24.80;47.90;;;;;;5023739;28;20497;-79
2023/01/18 12:30:45;;;;;;;13.80;12.40;;;24.30;44.40;;;;;;5013204;28;20429;-76
2023/01/18 12:33:22;;;;;;;15.33;12.60;;;20.80;44.10;;;;;;5035587;28;20416;-78
2023/01/18 12:35:51;;;;;;;13.27;11.97;;;17.90;46.70;;;;;;5035774;28;20400;-78
2023/01/18 12:38:23;;;;;;;12.93;11.37;;;15.40;51.10;;;;;;5035017;28;20467;-79
2023/01/18 12:40:51;;;;;;;12.90;11.63;;;13.60;55.80;;;;;;5034999;28;20414;-79
2023/01/18 12:43:53;;;;;;;13.60;10.67;;;12.10;61.10;;;;;;5018298;28;20409;-78
2023/01/18 12:46:24;;;;;;;15.20;10.97;;;11.00;70.20;;;;;;5018419;28;20463;-78
2023/01/18 12:48:58;;;;;;;15.83;12.37;;;10.00;78.40;;;;;;5035432;28;20788;-79
2023/01/18 12:51:27;;;;;;;13.23;11.73;;;9.40;86.50;;;;;;5017692;28;20428;-76
2023/01/18 12:53:58;;;;;;;17.37;11.17;;;8.80;91.20;;;;;;5018618;28;20420;-79
2023/01/18 12:56:38;;;;;;;12.00;10.80;;;8.30;93.60;;;;;;5036203;28;20452;-78
2023/01/18 12:59:12;;;;;;;12.67;11.20;;;7.90;96.10;;;;;;5034614;28;20504;-79
2023/01/18 13:01:43;;;;;;;14.57;10.83;;;7.50;97.40;;;;;;5034997;28;20436;-79
2023/01/18 13:04:26;;;;;;;13.83;9.70;;;7.10;99.00;;;;;;5016115;28;20421;-79
2023/01/18 13:06:58;;;;;;;11.17;8.67;;;6.90;99.90;;;;;;5017645;28;20428;-78
2023/01/18 13:09:32;;;;;;;11.90;9.47;;;6.70;99.90;;;;;;5035341;28;20517;-77
2023/01/18 13:12:02;;;;;;;10.73;7.80;;;6.60;99.90;;;;;;5017392;28;20445;-78
2023/01/18 13:14:46;;;;;;;11.50;8.00;;;6.40;99.90;;;;;;5035492;28;20409;-78
2023/01/18 13:17:20;;;;;;;7.67;6.50;;;6.20;99.90;;;;;;5017205;28;20599;-79
2023/01/18 13:19:53;;;;;;;8.40;6.87;;;6.00;99.90;;;;;;5015688;28;20471;-77
2023/01/18 13:22:44;;;;;;;10.30;8.77;;;5.80;99.90;;;;;;5015960;28;20449;-77
2023/01/18 13:25:18;;;;;;;10.53;7.60;;;5.80;99.90;;;;;;4981938;28;20426;-77
2023/01/18 13:27:56;;;;;;;12.17;8.70;;;5.70;99.90;;;;;;5015569;28;20823;-78
2023/01/18 13:30:23;;;;;;;10.83;7.73;;;5.70;99.90;;;;;;4997480;28;20422;-79
2023/01/18 13:32:50;;;;;;;11.33;7.70;;;5.60;99.90;;;;;;5015954;28;20520;-76